createdAt,value
2018-05-24T00:01:49.163Z,74.10
2018-05-24T00:04:16.657Z,73.80
2018-05-24T00:06:44.507Z,74.10
2018-05-24T00:09:12.030Z,74.10
2018-05-24T00:11:39.507Z,74.30
2018-05-24T00:14:07.035Z,73.80
2018-05-24T00:16:34.502Z,73.80
2018-05-24T00:19:02.014Z,74.00
2018-05-24T00:21:29.858Z,74.10
2018-05-24T00:23:57.314Z,74.10
2018-05-24T00:26:24.834Z,74.00
2018-05-24T00:28:52.336Z,74.00
2018-05-24T00:31:19.800Z,74.10
2018-05-24T00:33:47.649Z,74.10
2018-05-24T00:36:15.131Z,74.10
2018-05-24T00:38:43.039Z,74.40
2018-05-24T00:41:10.546Z,74.40
2018-05-24T00:43:38.050Z,74.40
2018-05-24T00:46:05.516Z,74.20
2018-05-24T00:48:32.983Z,74.30
2018-05-24T00:51:00.531Z,74.60
2018-05-24T00:53:27.970Z,74.90
2018-05-24T00:55:55.453Z,75.10
2018-05-24T00:58:22.900Z,75.10
2018-05-24T01:00:50.362Z,75.20
2018-05-24T01:03:17.906Z,75.30
2018-05-24T01:05:45.398Z,75.20
2018-05-24T01:08:12.860Z,75.30
2018-05-24T01:10:40.342Z,75.30
2018-05-24T01:13:08.208Z,75.30
2018-05-24T01:15:35.823Z,75.30
2018-05-24T01:18:03.330Z,75.00
2018-05-24T01:20:30.785Z,75.10
2018-05-24T01:22:58.279Z,75.00
2018-05-24T01:25:25.767Z,75.00
2018-05-24T01:27:53.292Z,75.30
2018-05-24T01:30:20.755Z,75.40
2018-05-24T01:32:48.272Z,75.50
2018-05-24T01:35:15.747Z,75.30
2018-05-24T01:37:50.010Z,75.30
2018-05-24T01:40:17.558Z,75.20
2018-05-24T01:42:45.031Z,75.30
2018-05-24T01:45:12.523Z,75.20
2018-05-24T01:47:40.007Z,75.30
2018-05-24T01:50:07.466Z,75.30
2018-05-24T01:52:35.110Z,75.00
2018-05-24T01:55:02.586Z,74.70
2018-05-24T01:57:30.060Z,74.90
2018-05-24T01:59:57.516Z,74.90
2018-05-24T02:02:24.979Z,74.90
2018-05-24T02:04:52.526Z,75.30
2018-05-24T02:07:19.997Z,75.00
2018-05-24T02:09:47.478Z,75.10
2018-05-24T02:12:15.344Z,75.70
2018-05-24T02:14:42.802Z,75.70
2018-05-24T02:17:10.322Z,75.80
2018-05-24T02:19:37.814Z,75.80
2018-05-24T02:22:05.666Z,76.00
2018-05-24T02:24:33.519Z,76.20
2018-05-24T02:27:01.012Z,76.20
2018-05-24T02:29:28.919Z,76.10
2018-05-24T02:31:56.442Z,76.00
2018-05-24T02:34:23.926Z,76.10
2018-05-24T02:36:51.374Z,75.70
2018-05-24T02:39:18.859Z,76.30
2018-05-24T02:41:46.414Z,76.30
2018-05-24T02:44:13.901Z,76.20
2018-05-24T02:46:41.371Z,76.40
2018-05-24T02:49:09.283Z,76.40
2018-05-24T02:51:36.812Z,76.40
2018-05-24T02:54:04.320Z,76.20
2018-05-24T02:56:31.787Z,76.00
2018-05-24T02:58:59.263Z,75.90
2018-05-24T03:01:27.119Z,76.00
2018-05-24T03:03:55.006Z,76.00
2018-05-24T03:06:22.904Z,75.90
2018-05-24T03:08:50.451Z,75.90
2018-05-24T03:11:17.929Z,75.90
2018-05-24T03:13:45.372Z,76.40
2018-05-24T03:16:12.823Z,76.60
2018-05-24T03:18:40.367Z,76.30
2018-05-24T03:21:07.854Z,76.30
2018-05-24T03:23:35.336Z,76.40
2018-05-24T03:26:02.826Z,76.60
2018-05-24T03:28:30.287Z,76.60
2018-05-24T03:30:57.795Z,76.70
2018-05-24T03:33:25.251Z,76.70
2018-05-24T03:35:52.736Z,76.70
2018-05-24T03:38:20.610Z,76.90
2018-05-24T03:40:48.459Z,76.90
2018-05-24T03:43:16.003Z,76.90
2018-05-24T03:45:43.485Z,77.00
2018-05-24T03:48:10.943Z,76.90
2018-05-24T03:50:38.871Z,77.10
2018-05-24T03:53:06.326Z,77.10
2018-05-24T03:55:33.834Z,77.00
2018-05-24T03:58:01.686Z,76.90
2018-05-24T04:00:41.569Z,76.80
2018-05-24T04:03:21.004Z,76.80
2018-05-24T04:05:48.597Z,76.80
2018-05-24T04:08:15.982Z,76.90
2018-05-24T04:10:43.487Z,76.80
2018-05-24T04:13:10.963Z,77.00
2018-05-24T04:15:38.411Z,77.10
2018-05-24T04:18:05.924Z,77.20
2018-05-24T04:20:33.822Z,77.30
2018-05-24T04:23:01.302Z,77.30
2018-05-24T04:25:28.749Z,77.20
2018-05-24T04:27:56.237Z,77.30
2018-05-24T04:30:23.753Z,77.50
2018-05-24T04:32:51.224Z,77.70
2018-05-24T04:35:18.698Z,77.80
2018-05-24T04:37:46.174Z,77.80
2018-05-24T04:40:13.652Z,77.90
2018-05-24T04:42:41.594Z,77.70
2018-05-24T04:45:09.046Z,77.70
2018-05-24T04:47:36.522Z,77.90
2018-05-24T04:50:04.386Z,78.10
2018-05-24T04:52:32.244Z,77.70
2018-05-24T04:54:59.754Z,77.70
2018-05-24T04:57:27.206Z,77.60
2018-05-24T04:59:54.670Z,77.00
2018-05-24T05:02:22.126Z,77.00
2018-05-24T05:04:49.583Z,76.70
2018-05-24T05:07:17.073Z,76.50
2018-05-24T05:09:44.562Z,76.50
2018-05-24T05:12:12.422Z,76.20
2018-05-24T05:14:40.306Z,76.10
2018-05-24T05:17:08.153Z,76.00
2018-05-24T05:19:35.782Z,76.00
2018-05-24T05:22:03.566Z,75.60
2018-05-24T05:24:31.433Z,75.40
2018-05-24T05:26:59.294Z,75.20
2018-05-24T05:29:26.769Z,75.30
2018-05-24T05:31:54.662Z,75.00
2018-05-24T05:34:22.119Z,75.00
2018-05-24T05:36:49.572Z,75.00
2018-05-24T05:39:17.047Z,74.90
2018-05-24T05:41:44.486Z,74.80
2018-05-24T05:44:12.012Z,74.50
2018-05-24T05:46:39.893Z,74.40
2018-05-24T05:49:07.762Z,74.40
2018-05-24T05:51:35.250Z,74.40
2018-05-24T05:54:02.692Z,74.40
2018-05-24T05:56:30.246Z,74.40
2018-05-24T05:58:57.745Z,74.40
2018-05-24T06:01:25.218Z,74.30
2018-05-24T06:03:52.686Z,74.30
2018-05-24T06:06:20.546Z,74.10
2018-05-24T06:08:48.439Z,74.10
2018-05-24T06:11:15.907Z,74.10
2018-05-24T06:13:43.393Z,74.10
2018-05-24T06:16:10.874Z,74.00
2018-05-24T06:18:38.370Z,74.00
2018-05-24T06:21:05.891Z,73.90
2018-05-24T06:23:33.342Z,73.90
2018-05-24T06:26:00.789Z,73.90
2018-05-24T06:28:28.281Z,73.90
2018-05-24T06:30:56.142Z,73.90
2018-05-24T06:33:24.032Z,74.00
2018-05-24T06:35:51.502Z,74.00
2018-05-24T06:38:18.954Z,73.60
2018-05-24T06:40:46.407Z,73.40
2018-05-24T06:43:13.862Z,73.00
2018-05-24T06:45:41.371Z,73.10
2018-05-24T06:48:08.851Z,73.40
2018-05-24T06:50:36.695Z,73.00
2018-05-24T06:53:04.162Z,73.00
2018-05-24T06:55:32.043Z,72.80
2018-05-24T06:57:59.552Z,72.80
2018-05-24T07:00:27.008Z,72.80
2018-05-24T07:02:54.470Z,72.80
2018-05-24T07:05:21.929Z,72.60
2018-05-24T07:07:49.407Z,72.60
2018-05-24T07:10:16.940Z,72.50
2018-05-24T07:12:44.423Z,72.10
2018-05-24T07:15:11.894Z,72.10
2018-05-24T07:17:39.778Z,72.10
2018-05-24T07:20:07.218Z,72.10
2018-05-24T07:22:35.156Z,72.20
2018-05-24T07:25:02.638Z,72.20
2018-05-24T07:27:30.110Z,72.00
2018-05-24T07:29:57.938Z,71.90
2018-05-24T07:32:25.418Z,71.90
2018-05-24T07:34:53.325Z,71.60
2018-05-24T07:37:20.782Z,71.60
2018-05-24T07:39:48.369Z,71.50
2018-05-24T07:42:15.727Z,71.60
2018-05-24T07:44:43.174Z,71.80
2018-05-24T07:47:10.707Z,71.20
2018-05-24T07:49:38.183Z,71.10
2018-05-24T07:52:05.683Z,70.90
2018-05-24T07:54:33.139Z,71.00
2018-05-24T07:57:01.020Z,70.80
2018-05-24T07:59:28.550Z,70.80
2018-05-24T08:01:56.024Z,70.60
2018-05-24T08:04:23.891Z,70.00
2018-05-24T08:06:51.764Z,69.50
2018-05-24T08:09:19.224Z,69.50
2018-05-24T08:11:46.771Z,69.30
2018-05-24T08:14:14.239Z,69.10
2018-05-24T08:16:41.688Z,69.00
2018-05-24T08:19:09.170Z,69.00
2018-05-24T08:21:36.622Z,68.90
2018-05-24T08:24:04.169Z,69.00
2018-05-24T08:26:31.607Z,69.10
2018-05-24T08:28:59.494Z,68.90
2018-05-24T08:31:26.971Z,68.90
2018-05-24T08:33:54.442Z,68.90
2018-05-24T08:36:21.949Z,68.80
2018-05-24T08:38:49.382Z,69.00
2018-05-24T08:41:17.279Z,69.40
2018-05-24T08:43:44.772Z,69.40
2018-05-24T08:46:12.234Z,68.70
2018-05-24T08:48:39.764Z,68.80
2018-05-24T08:51:07.243Z,69.10
2018-05-24T08:53:34.718Z,69.20
2018-05-24T08:56:02.211Z,68.70
2018-05-24T08:58:30.057Z,68.10
2018-05-24T09:00:57.600Z,68.10
2018-05-24T09:03:25.068Z,68.00
2018-05-24T09:05:52.550Z,68.00
2018-05-24T09:08:20.422Z,67.80
2018-05-24T09:10:47.870Z,67.80
2018-05-24T09:13:15.803Z,67.30
2018-05-24T09:15:43.242Z,67.30
2018-05-24T09:18:10.720Z,67.10
2018-05-24T09:20:38.204Z,67.20
2018-05-24T09:23:05.650Z,66.60
2018-05-24T09:25:33.547Z,66.80
2018-05-24T09:28:01.026Z,66.70
2018-05-24T09:30:28.479Z,66.80
2018-05-24T09:32:55.970Z,67.50
2018-05-24T09:35:23.446Z,67.60
2018-05-24T09:37:51.360Z,68.10
2018-05-24T09:40:18.849Z,68.10
2018-05-24T09:42:46.316Z,68.40
2018-05-24T09:45:13.795Z,68.50
2018-05-24T09:47:41.644Z,68.90
2018-05-24T09:50:09.164Z,68.90
2018-05-24T09:52:36.651Z,68.80
2018-05-24T09:55:04.101Z,68.90
2018-05-24T09:57:31.569Z,69.50
2018-05-24T09:59:59.023Z,69.50
2018-05-24T10:02:26.531Z,69.70
2018-05-24T10:04:53.991Z,69.30
2018-05-24T10:07:21.458Z,69.00
2018-05-24T10:09:48.910Z,68.70
2018-05-24T10:12:16.395Z,68.50
2018-05-24T10:14:45.792Z,68.40
2018-05-24T10:17:13.235Z,68.30
2018-05-24T10:19:40.684Z,68.60
2018-05-24T10:22:08.158Z,68.60
2018-05-24T10:24:35.654Z,68.70
2018-05-24T10:27:03.110Z,68.60
2018-05-24T10:29:30.661Z,68.70
2018-05-24T10:31:58.442Z,69.20
2018-05-24T10:34:26.302Z,69.10
2018-05-24T10:36:54.147Z,68.70
2018-05-24T10:39:21.663Z,68.70
2018-05-24T10:41:49.118Z,68.60
2018-05-24T10:44:16.575Z,68.80
2018-05-24T10:46:44.060Z,68.90
2018-05-24T10:49:11.542Z,68.80
2018-05-24T10:51:39.079Z,68.30
2018-05-24T10:54:06.607Z,67.80
2018-05-24T10:56:34.432Z,67.30
2018-05-24T10:59:01.891Z,67.30
2018-05-24T11:01:29.375Z,66.90
2018-05-24T11:03:56.935Z,66.40
2018-05-24T11:06:24.461Z,66.60
2018-05-24T11:08:51.847Z,66.60
2018-05-24T11:11:19.298Z,66.40
2018-05-24T11:13:46.770Z,66.70
2018-05-24T11:16:14.265Z,66.90
2018-05-24T11:18:41.741Z,67.00
2018-05-24T11:21:09.604Z,67.60
2018-05-24T11:23:37.500Z,67.90
2018-05-24T11:26:04.962Z,67.90
2018-05-24T11:28:32.507Z,68.10
2018-05-24T11:30:59.979Z,68.40
2018-05-24T11:33:27.458Z,68.50
2018-05-24T11:35:54.930Z,68.90
2018-05-24T11:38:22.402Z,69.10
2018-05-24T11:40:49.903Z,69.40
2018-05-24T11:43:17.478Z,69.50
2018-05-24T11:45:44.891Z,69.30
2018-05-24T11:48:12.740Z,69.50
2018-05-24T11:50:40.622Z,69.30
2018-05-24T11:53:08.519Z,69.20
2018-05-24T11:55:35.981Z,69.20
2018-05-24T11:58:03.427Z,69.30
2018-05-24T12:00:30.886Z,69.10
2018-05-24T12:02:58.359Z,68.90
2018-05-24T12:05:25.889Z,68.90
2018-05-24T12:07:53.347Z,68.40
2018-05-24T12:10:20.827Z,68.30
2018-05-24T12:12:48.394Z,67.70
2018-05-24T12:15:15.931Z,67.60
2018-05-24T12:17:43.454Z,67.40
2018-05-24T12:20:11.302Z,65.40
2018-05-24T12:22:38.786Z,65.40
2018-05-24T12:25:06.649Z,65.20
2018-05-24T12:27:34.114Z,65.20
2018-05-24T12:30:01.608Z,65.00
2018-05-24T12:32:29.056Z,64.70
2018-05-24T12:34:56.504Z,63.40
2018-05-24T12:37:23.983Z,62.90
2018-05-24T12:39:51.431Z,63.10
2018-05-24T12:42:18.964Z,63.10
2018-05-24T12:44:46.451Z,63.30
2018-05-24T12:47:13.937Z,62.90
2018-05-24T12:49:41.384Z,63.10
2018-05-24T12:52:08.887Z,62.40
2018-05-24T12:54:36.403Z,62.20
2018-05-24T12:57:03.902Z,62.50
2018-05-24T12:59:31.391Z,62.00
2018-05-24T13:01:58.828Z,62.10
2018-05-24T13:04:26.303Z,62.90
2018-05-24T13:06:53.829Z,62.90
2018-05-24T13:09:21.271Z,62.20
2018-05-24T13:11:48.745Z,62.10
2018-05-24T13:14:16.202Z,62.10
2018-05-24T13:16:43.661Z,62.10
2018-05-24T13:19:11.145Z,62.10
2018-05-24T13:21:38.619Z,61.90
2018-05-24T13:24:06.092Z,61.10
2018-05-24T13:26:33.595Z,60.80
2018-05-24T13:29:01.068Z,61.30
2018-05-24T13:31:28.596Z,61.40
2018-05-24T13:33:56.079Z,61.50
2018-05-24T13:36:23.551Z,61.50
2018-05-24T13:38:51.015Z,61.20
2018-05-24T13:41:18.454Z,61.00
2018-05-24T13:43:45.940Z,61.00
2018-05-24T13:46:13.386Z,61.70
2018-05-24T13:48:40.872Z,60.70
2018-05-24T13:51:08.707Z,60.70
2018-05-24T13:53:36.164Z,60.70
2018-05-24T13:56:03.671Z,61.10
2018-05-24T13:58:31.114Z,61.60
2018-05-24T14:00:58.571Z,60.80
2018-05-24T14:03:26.022Z,60.40
2018-05-24T14:05:53.867Z,60.50
2018-05-24T14:08:21.387Z,60.50
2018-05-24T14:10:48.805Z,60.60
2018-05-24T14:13:16.284Z,59.90
2018-05-24T14:15:43.729Z,59.60
2018-05-24T14:18:11.198Z,59.80
2018-05-24T14:20:38.709Z,60.20
2018-05-24T14:23:06.182Z,59.60
2018-05-24T14:25:34.053Z,60.00
2018-05-24T14:28:01.889Z,60.30
2018-05-24T14:30:29.342Z,60.30
2018-05-24T14:32:56.867Z,60.30
2018-05-24T14:35:24.318Z,60.80
2018-05-24T14:37:51.877Z,61.40
2018-05-24T14:40:19.314Z,60.80
2018-05-24T14:42:46.767Z,61.00
2018-05-24T14:45:14.689Z,60.60
2018-05-24T14:47:42.127Z,60.60
2018-05-24T14:50:09.606Z,60.80
2018-05-24T14:52:37.086Z,60.90
2018-05-24T14:55:04.530Z,60.70
2018-05-24T14:57:32.047Z,60.80
2018-05-24T14:59:59.498Z,61.10
2018-05-24T15:02:26.950Z,60.90
2018-05-24T15:04:54.426Z,61.30
2018-05-24T15:07:21.883Z,61.70
2018-05-24T15:09:49.374Z,61.80
2018-05-24T15:12:16.823Z,61.90
2018-05-24T15:14:44.293Z,61.50
2018-05-24T15:17:11.758Z,61.60
2018-05-24T15:19:39.613Z,62.60
2018-05-24T15:22:07.546Z,62.30
2018-05-24T15:24:35.023Z,62.30
2018-05-24T15:27:02.490Z,62.20
2018-05-24T15:29:29.958Z,62.20
2018-05-24T15:31:57.827Z,61.70
2018-05-24T15:34:25.764Z,61.50
2018-05-24T15:36:53.249Z,61.50
2018-05-24T15:39:20.714Z,61.60
2018-05-24T15:41:48.162Z,61.80
2018-05-24T15:44:16.009Z,61.30
2018-05-24T15:46:43.526Z,61.30
2018-05-24T15:49:11.011Z,61.10
2018-05-24T15:51:38.483Z,61.00
2018-05-24T15:54:05.970Z,61.20
2018-05-24T15:56:33.811Z,61.30
2018-05-24T15:59:01.335Z,61.30
2018-05-24T16:01:28.807Z,61.50
2018-05-24T16:03:56.646Z,61.10
2018-05-24T16:06:24.116Z,61.10
2018-05-24T16:08:51.552Z,61.20
2018-05-24T16:11:19.072Z,61.20
2018-05-24T16:13:46.941Z,61.30
2018-05-24T16:16:14.775Z,61.70
2018-05-24T16:18:42.223Z,61.70
2018-05-24T16:21:09.689Z,61.80
2018-05-24T16:23:37.187Z,62.10
2018-05-24T16:26:04.636Z,62.10
2018-05-24T16:28:32.482Z,62.70
2018-05-24T16:30:59.947Z,62.70
2018-05-24T16:33:27.802Z,63.10
2018-05-24T16:35:55.296Z,63.10
2018-05-24T16:38:22.738Z,63.30
2018-05-24T16:40:50.223Z,63.60
2018-05-24T16:43:22.474Z,63.50
2018-05-24T16:45:49.935Z,63.50
2018-05-24T16:48:17.424Z,63.20
2018-05-24T16:50:44.897Z,63.00
2018-05-24T16:53:12.339Z,63.30
2018-05-24T16:55:39.799Z,63.60
2018-05-24T16:58:07.252Z,63.90
2018-05-24T17:00:34.772Z,64.10
2018-05-24T17:03:02.599Z,64.30
2018-05-24T17:05:30.073Z,64.30
2018-05-24T17:07:57.911Z,64.50
2018-05-24T17:10:25.395Z,64.50
2018-05-24T17:12:53.290Z,64.50
2018-05-24T17:15:20.765Z,64.50
2018-05-24T17:17:48.243Z,64.00
2018-05-24T17:20:15.719Z,63.80
2018-05-24T17:22:43.195Z,64.10
2018-05-24T17:25:11.096Z,64.20
2018-05-24T17:27:38.547Z,64.20
2018-05-24T17:30:06.027Z,64.30
2018-05-24T17:32:33.507Z,64.40
2018-05-24T17:35:01.011Z,64.50
2018-05-24T17:37:28.485Z,64.50
2018-05-24T17:39:55.967Z,64.40
2018-05-24T17:42:23.461Z,64.70
2018-05-24T17:44:51.296Z,65.00
2018-05-24T17:47:18.742Z,65.00
2018-05-24T17:49:46.218Z,65.20
2018-05-24T17:52:13.691Z,65.40
2018-05-24T17:54:41.543Z,65.80
2018-05-24T17:57:09.386Z,66.00
2018-05-24T17:59:36.836Z,66.00
2018-05-24T18:02:04.343Z,66.30
2018-05-24T18:04:31.798Z,66.70
2018-05-24T18:07:01.317Z,67.00
2018-05-24T18:09:28.801Z,67.00
2018-05-24T18:11:56.249Z,67.20
2018-05-24T18:14:23.785Z,67.30
2018-05-24T18:16:51.250Z,67.40
2018-05-24T18:19:18.735Z,67.50
2018-05-24T18:21:46.179Z,68.00
2018-05-24T18:24:13.623Z,67.70
2018-05-24T18:26:47.645Z,67.80
2018-05-24T18:29:20.540Z,67.90
2018-05-24T18:31:49.101Z,67.90
2018-05-24T18:34:17.755Z,67.80
2018-05-24T18:36:45.607Z,67.80
2018-05-24T18:39:13.074Z,67.80
2018-05-24T18:41:40.948Z,67.60
2018-05-24T18:44:08.807Z,67.60
2018-05-24T18:46:36.643Z,67.70
2018-05-24T18:49:04.119Z,67.70
2018-05-24T18:51:31.617Z,67.70
2018-05-24T18:53:59.088Z,67.80
2018-05-24T18:56:26.643Z,67.80
2018-05-24T18:58:54.099Z,68.00
2018-05-24T19:01:21.566Z,68.10
2018-05-24T19:03:49.363Z,68.10
2018-05-24T19:06:17.444Z,68.10
2018-05-24T19:08:45.083Z,68.10
2018-05-24T19:11:12.554Z,68.10
2018-05-24T19:13:40.111Z,68.20
2018-05-24T19:19:19.578Z,68.40
2018-05-24T19:21:47.063Z,68.40
2018-05-24T19:24:14.498Z,68.80
2018-05-24T19:26:42.391Z,69.00
2018-05-24T19:29:09.870Z,69.00
2018-05-24T19:31:37.359Z,68.90
2018-05-24T19:34:04.815Z,69.00
2018-05-24T19:36:32.271Z,69.10
2018-05-24T19:38:59.723Z,69.20
2018-05-24T19:41:27.205Z,69.10
2018-05-24T19:43:55.491Z,69.30
2018-05-24T19:46:22.931Z,69.30
2018-05-24T19:48:50.786Z,69.80
2018-05-24T19:51:18.251Z,69.80
2018-05-24T19:53:46.132Z,70.00
2018-05-24T19:56:14.087Z,70.40
2018-05-24T19:58:41.538Z,70.40
2018-05-24T20:01:09.417Z,70.20
2018-05-24T20:03:37.294Z,70.20
2018-05-24T20:06:05.424Z,70.30
2018-05-24T20:08:34.409Z,70.40
2018-05-24T20:11:02.135Z,70.40
2018-05-24T20:13:29.854Z,70.50
2018-05-24T20:15:57.572Z,70.80
2018-05-24T20:18:25.293Z,71.10
2018-05-24T20:20:53.095Z,71.50
2018-05-24T20:23:20.811Z,71.40
2018-05-24T20:25:48.535Z,71.60
2018-05-24T20:28:16.257Z,71.50
2018-05-24T20:30:44.387Z,71.90
2018-05-24T20:33:12.181Z,71.90
2018-05-24T20:35:40.340Z,72.20
2018-05-24T20:38:08.047Z,72.20
2018-05-24T20:40:35.730Z,72.20
2018-05-24T20:43:03.269Z,72.30
2018-05-24T20:45:30.815Z,72.50
2018-05-24T20:47:58.258Z,72.60
2018-05-24T20:50:26.131Z,72.70
2018-05-24T20:52:53.974Z,72.70
2018-05-24T20:55:21.824Z,72.80
2018-05-24T20:57:49.285Z,72.80
2018-05-24T21:00:16.735Z,72.90
2018-05-24T21:02:44.199Z,73.20
2018-05-24T21:05:11.655Z,73.20
2018-05-24T21:07:39.115Z,73.30
2018-05-24T21:10:06.618Z,73.70
2018-05-24T21:12:34.079Z,73.40
2018-05-24T21:15:01.534Z,73.60
2018-05-24T21:17:28.996Z,73.70
2018-05-24T21:19:56.488Z,73.70
2018-05-24T21:22:24.032Z,73.60
2018-05-24T21:24:51.490Z,73.60
2018-05-24T21:27:19.845Z,73.80
2018-05-24T21:29:47.323Z,74.00
2018-05-24T21:32:15.815Z,74.20
2018-05-24T21:34:43.362Z,74.10
2018-05-24T21:37:10.815Z,74.10
2018-05-24T21:39:38.327Z,74.00
2018-05-24T21:50:49.541Z,74.40
2018-05-24T21:56:21.567Z,74.50
2018-05-24T21:58:49.024Z,74.50
2018-05-24T22:01:26.145Z,74.60
2018-05-24T22:03:53.610Z,74.70
2018-05-24T22:06:21.066Z,74.70
2018-05-24T22:08:48.529Z,74.70
2018-05-24T22:11:15.983Z,75.00
2018-05-24T22:13:43.439Z,75.10
2018-05-24T22:16:10.896Z,75.00
2018-05-24T22:18:38.350Z,75.10
2018-05-24T22:21:05.805Z,75.10
2018-05-24T22:23:33.259Z,75.10
2018-05-24T22:26:01.711Z,75.20
2018-05-24T22:28:29.158Z,75.30
2018-05-24T22:30:56.627Z,75.30
2018-05-24T22:33:24.087Z,75.40
2018-05-24T22:35:51.562Z,75.60
2018-05-24T22:38:19.066Z,75.70
2018-05-24T22:40:46.570Z,75.70
2018-05-24T22:43:14.060Z,75.70
2018-05-24T22:45:41.537Z,75.80
2018-05-24T22:48:12.841Z,75.80
2018-05-24T22:50:40.353Z,75.90
2018-05-24T22:53:07.810Z,76.00
2018-05-24T22:55:35.286Z,76.10
2018-05-24T22:58:02.783Z,76.10
2018-05-24T23:00:30.266Z,76.10
2018-05-24T23:02:58.131Z,76.20
2018-05-24T23:05:25.636Z,76.20
2018-05-24T23:07:53.082Z,76.30
2018-05-24T23:10:20.532Z,76.30
2018-05-24T23:12:47.987Z,76.40
2018-05-24T23:15:15.583Z,76.50
2018-05-24T23:17:43.470Z,76.50
2018-05-24T23:20:11.316Z,76.40
2018-05-24T23:22:39.192Z,76.40
2018-05-24T23:25:07.035Z,76.60
2018-05-24T23:27:34.547Z,76.60
2018-05-24T23:30:02.007Z,76.60
2018-05-24T23:32:29.479Z,76.70
2018-05-24T23:34:56.934Z,76.80
2018-05-24T23:37:24.422Z,76.90
2018-05-24T23:39:51.955Z,76.90
2018-05-24T23:42:19.412Z,77.00
2018-05-24T23:44:46.886Z,77.00
2018-05-24T23:47:14.347Z,77.10
2018-05-24T23:49:41.823Z,77.20
2018-05-24T23:52:09.319Z,77.40
2018-05-24T23:54:36.774Z,77.70
2018-05-24T23:57:04.227Z,77.70
2018-05-24T23:59:31.679Z,77.80
